sensor_id;sensor_type;location;lat;lon;timestamp;P1;durP1;ratioP1;P2;durP2;ratioP2
10383;SDS011;5238;43.508;4.980;2023-08-20T00:01:21;7.40;;;5.60;;
10383;SDS011;5238;43.508;4.980;2023-08-20T00:03:50;6.75;;;5.18;;
10383;SDS011;5238;43.508;4.980;2023-08-20T00:06:18;9.07;;;6.10;;
10383;SDS011;5238;43.508;4.980;2023-08-20T00:08:46;5.80;;;5.18;;
10383;SDS011;5238;43.508;4.980;2023-08-20T00:11:13;8.02;;;5.60;;
10383;SDS011;5238;43.508;4.980;2023-08-20T00:13:41;8.13;;;6.30;;
10383;SDS011;5238;43.508;4.980;2023-08-20T00:16:09;5.75;;;5.25;;
10383;SDS011;5238;43.508;4.980;2023-08-20T00:18:36;6.15;;;5.50;;
10383;SDS011;5238;43.508;4.980;2023-08-20T00:21:04;10.27;;;6.10;;
10383;SDS011;5238;43.508;4.980;2023-08-20T00:23:33;7.28;;;6.28;;
10383;SDS011;5238;43.508;4.980;2023-08-20T00:26:01;7.10;;;5.85;;
10383;SDS011;5238;43.508;4.980;2023-08-20T00:28:28;8.07;;;5.57;;
10383;SDS011;5238;43.508;4.980;2023-08-20T00:30:56;6.63;;;5.97;;
10383;SDS011;5238;43.508;4.980;2023-08-20T00:33:23;7.38;;;5.57;;
10383;SDS011;5238;43.508;4.980;2023-08-20T00:35:50;6.57;;;5.93;;
10383;SDS011;5238;43.508;4.980;2023-08-20T00:38:17;6.45;;;5.20;;
10383;SDS011;5238;43.508;4.980;2023-08-20T00:40:44;7.25;;;5.72;;
10383;SDS011;5238;43.508;4.980;2023-08-20T00:43:11;7.97;;;6.03;;
10383;SDS011;5238;43.508;4.980;2023-08-20T00:45:38;7.82;;;5.85;;
10383;SDS011;5238;43.508;4.980;2023-08-20T00:48:09;6.22;;;5.63;;
10383;SDS011;5238;43.508;4.980;2023-08-20T00:50:37;9.77;;;5.65;;
10383;SDS011;5238;43.508;4.980;2023-08-20T00:53:05;6.10;;;5.22;;
10383;SDS011;5238;43.508;4.980;2023-08-20T00:55:33;6.45;;;5.72;;
10383;SDS011;5238;43.508;4.980;2023-08-20T00:58:00;6.97;;;5.50;;
10383;SDS011;5238;43.508;4.980;2023-08-20T01:00:27;7.20;;;5.60;;
10383;SDS011;5238;43.508;4.980;2023-08-20T01:02:55;7.32;;;5.45;;
10383;SDS011;5238;43.508;4.980;2023-08-20T01:05:23;7.22;;;5.85;;
10383;SDS011;5238;43.508;4.980;2023-08-20T01:07:57;7.97;;;5.38;;
10383;SDS011;5238;43.508;4.980;2023-08-20T01:10:33;7.15;;;5.47;;
10383;SDS011;5238;43.508;4.980;2023-08-20T01:13:06;7.05;;;5.85;;
10383;SDS011;5238;43.508;4.980;2023-08-20T01:15:34;6.68;;;5.43;;
10383;SDS011;5238;43.508;4.980;2023-08-20T01:18:01;6.63;;;5.35;;
10383;SDS011;5238;43.508;4.980;2023-08-20T01:20:31;8.30;;;5.82;;
10383;SDS011;5238;43.508;4.980;2023-08-20T01:23:24;6.05;;;5.40;;
10383;SDS011;5238;43.508;4.980;2023-08-20T01:26:14;8.55;;;5.47;;
10383;SDS011;5238;43.508;4.980;2023-08-20T01:28:58;6.03;;;5.43;;
10383;SDS011;5238;43.508;4.980;2023-08-20T01:31:26;6.20;;;5.50;;
10383;SDS011;5238;43.508;4.980;2023-08-20T01:33:54;8.15;;;5.22;;
10383;SDS011;5238;43.508;4.980;2023-08-20T01:36:21;6.97;;;5.70;;
10383;SDS011;5238;43.508;4.980;2023-08-20T01:38:48;9.32;;;5.18;;
10383;SDS011;5238;43.508;4.980;2023-08-20T01:41:16;7.03;;;5.43;;
10383;SDS011;5238;43.508;4.980;2023-08-20T01:43:43;7.78;;;5.60;;
10383;SDS011;5238;43.508;4.980;2023-08-20T01:46:11;8.23;;;5.38;;
10383;SDS011;5238;43.508;4.980;2023-08-20T01:48:38;8.43;;;5.90;;
10383;SDS011;5238;43.508;4.980;2023-08-20T01:51:05;6.35;;;5.28;;
10383;SDS011;5238;43.508;4.980;2023-08-20T01:53:33;6.20;;;5.25;;
10383;SDS011;5238;43.508;4.980;2023-08-20T01:56:00;8.80;;;5.80;;
10383;SDS011;5238;43.508;4.980;2023-08-20T01:58:27;7.05;;;5.13;;
10383;SDS011;5238;43.508;4.980;2023-08-20T02:00:55;6.25;;;5.53;;
10383;SDS011;5238;43.508;4.980;2023-08-20T02:03:24;6.18;;;5.32;;
10383;SDS011;5238;43.508;4.980;2023-08-20T02:05:51;6.00;;;5.05;;
10383;SDS011;5238;43.508;4.980;2023-08-20T02:08:18;6.13;;;5.53;;
10383;SDS011;5238;43.508;4.980;2023-08-20T02:10:45;6.93;;;6.03;;
10383;SDS011;5238;43.508;4.980;2023-08-20T02:13:12;5.93;;;5.43;;
10383;SDS011;5238;43.508;4.980;2023-08-20T02:15:39;5.60;;;5.10;;
10383;SDS011;5238;43.508;4.980;2023-08-20T02:18:06;7.30;;;5.35;;
10383;SDS011;5238;43.508;4.980;2023-08-20T02:20:34;6.32;;;5.82;;
10383;SDS011;5238;43.508;4.980;2023-08-20T02:23:01;6.60;;;5.43;;
10383;SDS011;5238;43.508;4.980;2023-08-20T02:25:28;5.75;;;5.25;;
10383;SDS011;5238;43.508;4.980;2023-08-20T02:27:55;6.30;;;5.57;;
10383;SDS011;5238;43.508;4.980;2023-08-20T02:30:22;5.78;;;5.30;;
10383;SDS011;5238;43.508;4.980;2023-08-20T02:32:49;6.40;;;5.78;;
10383;SDS011;5238;43.508;4.980;2023-08-20T02:35:16;8.05;;;5.30;;
10383;SDS011;5238;43.508;4.980;2023-08-20T02:37:44;5.90;;;5.40;;
10383;SDS011;5238;43.508;4.980;2023-08-20T02:40:11;6.38;;;5.75;;
10383;SDS011;5238;43.508;4.980;2023-08-20T02:42:39;5.72;;;5.22;;
10383;SDS011;5238;43.508;4.980;2023-08-20T02:45:06;5.57;;;5.07;;
10383;SDS011;5238;43.508;4.980;2023-08-20T02:47:35;7.13;;;5.00;;
10383;SDS011;5238;43.508;4.980;2023-08-20T02:50:02;5.85;;;5.13;;
10383;SDS011;5238;43.508;4.980;2023-08-20T02:52:29;8.73;;;5.18;;
10383;SDS011;5238;43.508;4.980;2023-08-20T02:54:57;7.68;;;5.50;;
10383;SDS011;5238;43.508;4.980;2023-08-20T02:57:24;5.75;;;5.20;;
10383;SDS011;5238;43.508;4.980;2023-08-20T02:59:52;9.73;;;5.28;;
10383;SDS011;5238;43.508;4.980;2023-08-20T03:02:18;6.10;;;5.50;;
10383;SDS011;5238;43.508;4.980;2023-08-20T03:04:45;6.05;;;5.47;;
10383;SDS011;5238;43.508;4.980;2023-08-20T03:07:12;7.25;;;5.40;;
10383;SDS011;5238;43.508;4.980;2023-08-20T03:09:39;7.72;;;5.15;;
10383;SDS011;5238;43.508;4.980;2023-08-20T03:12:08;9.23;;;5.47;;
10383;SDS011;5238;43.508;4.980;2023-08-20T03:14:35;7.78;;;5.80;;
10383;SDS011;5238;43.508;4.980;2023-08-20T03:17:02;6.18;;;5.57;;
10383;SDS011;5238;43.508;4.980;2023-08-20T03:19:33;6.65;;;5.90;;
10383;SDS011;5238;43.508;4.980;2023-08-20T03:22:01;8.18;;;5.82;;
10383;SDS011;5238;43.508;4.980;2023-08-20T03:24:28;6.55;;;5.75;;
10383;SDS011;5238;43.508;4.980;2023-08-20T03:26:55;6.60;;;5.28;;
10383;SDS011;5238;43.508;4.980;2023-08-20T03:29:23;10.20;;;5.30;;
10383;SDS011;5238;43.508;4.980;2023-08-20T03:31:50;5.78;;;5.20;;
10383;SDS011;5238;43.508;4.980;2023-08-20T03:34:17;7.22;;;5.95;;
10383;SDS011;5238;43.508;4.980;2023-08-20T03:36:44;6.38;;;5.40;;
10383;SDS011;5238;43.508;4.980;2023-08-20T03:39:10;6.45;;;5.70;;
10383;SDS011;5238;43.508;4.980;2023-08-20T03:41:38;6.40;;;5.30;;
10383;SDS011;5238;43.508;4.980;2023-08-20T03:44:05;7.15;;;5.80;;
10383;SDS011;5238;43.508;4.980;2023-08-20T03:46:33;7.20;;;5.45;;
10383;SDS011;5238;43.508;4.980;2023-08-20T03:49:00;5.97;;;5.40;;
10383;SDS011;5238;43.508;4.980;2023-08-20T03:51:27;5.82;;;5.32;;
10383;SDS011;5238;43.508;4.980;2023-08-20T03:53:54;6.10;;;5.50;;
10383;SDS011;5238;43.508;4.980;2023-08-20T03:56:21;5.47;;;5.07;;
10383;SDS011;5238;43.508;4.980;2023-08-20T03:58:48;8.52;;;5.30;;
10383;SDS011;5238;43.508;4.980;2023-08-20T04:01:15;6.45;;;5.55;;
10383;SDS011;5238;43.508;4.980;2023-08-20T04:03:44;5.57;;;5.05;;
10383;SDS011;5238;43.508;4.980;2023-08-20T04:06:12;5.75;;;5.25;;
10383;SDS011;5238;43.508;4.980;2023-08-20T04:08:39;5.75;;;5.00;;
10383;SDS011;5238;43.508;4.980;2023-08-20T04:11:06;5.50;;;4.95;;
10383;SDS011;5238;43.508;4.980;2023-08-20T04:13:33;6.00;;;5.45;;
10383;SDS011;5238;43.508;4.980;2023-08-20T04:16:00;5.53;;;5.03;;
10383;SDS011;5238;43.508;4.980;2023-08-20T04:18:27;6.57;;;5.30;;
10383;SDS011;5238;43.508;4.980;2023-08-20T04:20:56;6.10;;;5.22;;
10383;SDS011;5238;43.508;4.980;2023-08-20T04:23:23;7.32;;;5.30;;
10383;SDS011;5238;43.508;4.980;2023-08-20T04:25:50;6.13;;;5.43;;
10383;SDS011;5238;43.508;4.980;2023-08-20T04:28:17;5.60;;;4.65;;
10383;SDS011;5238;43.508;4.980;2023-08-20T04:30:44;5.60;;;5.07;;
10383;SDS011;5238;43.508;4.980;2023-08-20T04:33:11;5.75;;;5.15;;
10383;SDS011;5238;43.508;4.980;2023-08-20T04:35:38;5.35;;;4.85;;
10383;SDS011;5238;43.508;4.980;2023-08-20T04:38:06;6.35;;;4.95;;
10383;SDS011;5238;43.508;4.980;2023-08-20T04:40:34;5.13;;;4.72;;
10383;SDS011;5238;43.508;4.980;2023-08-20T04:43:00;5.70;;;5.20;;
10383;SDS011;5238;43.508;4.980;2023-08-20T04:45:27;5.88;;;5.07;;
10383;SDS011;5238;43.508;4.980;2023-08-20T04:47:54;5.28;;;4.85;;
10383;SDS011;5238;43.508;4.980;2023-08-20T04:50:21;6.03;;;4.97;;
10383;SDS011;5238;43.508;4.980;2023-08-20T04:52:48;5.50;;;4.88;;
10383;SDS011;5238;43.508;4.980;2023-08-20T04:55:17;5.88;;;4.95;;
10383;SDS011;5238;43.508;4.980;2023-08-20T04:57:43;7.50;;;5.57;;
10383;SDS011;5238;43.508;4.980;2023-08-20T05:00:11;5.43;;;4.93;;
10383;SDS011;5238;43.508;4.980;2023-08-20T05:02:38;5.85;;;4.97;;
10383;SDS011;5238;43.508;4.980;2023-08-20T05:05:05;7.13;;;5.35;;
10383;SDS011;5238;43.508;4.980;2023-08-20T05:07:32;6.85;;;5.82;;
10383;SDS011;5238;43.508;4.980;2023-08-20T05:10:00;6.22;;;5.63;;
10383;SDS011;5238;43.508;4.980;2023-08-20T05:12:28;7.28;;;5.68;;
10383;SDS011;5238;43.508;4.980;2023-08-20T05:14:55;5.68;;;5.18;;
10383;SDS011;5238;43.508;4.980;2023-08-20T05:17:22;6.82;;;5.45;;
10383;SDS011;5238;43.508;4.980;2023-08-20T05:19:49;5.78;;;5.28;;
10383;SDS011;5238;43.508;4.980;2023-08-20T05:22:16;6.93;;;5.38;;
10383;SDS011;5238;43.508;4.980;2023-08-20T05:24:43;6.10;;;5.55;;
10383;SDS011;5238;43.508;4.980;2023-08-20T05:27:13;5.50;;;5.00;;
10383;SDS011;5238;43.508;4.980;2023-08-20T05:29:43;5.88;;;5.25;;
10383;SDS011;5238;43.508;4.980;2023-08-20T05:32:10;6.60;;;5.03;;
10383;SDS011;5238;43.508;4.980;2023-08-20T05:34:37;5.65;;;5.05;;
10383;SDS011;5238;43.508;4.980;2023-08-20T05:37:04;5.72;;;5.18;;
10383;SDS011;5238;43.508;4.980;2023-08-20T05:39:36;5.45;;;4.95;;
10383;SDS011;5238;43.508;4.980;2023-08-20T05:42:03;7.80;;;5.00;;
10383;SDS011;5238;43.508;4.980;2023-08-20T05:44:31;6.50;;;5.13;;
10383;SDS011;5238;43.508;4.980;2023-08-20T05:46:59;9.15;;;5.00;;
10383;SDS011;5238;43.508;4.980;2023-08-20T05:49:26;6.22;;;5.25;;
10383;SDS011;5238;43.508;4.980;2023-08-20T05:51:53;5.88;;;4.80;;
10383;SDS011;5238;43.508;4.980;2023-08-20T05:54:20;5.13;;;4.70;;
10383;SDS011;5238;43.508;4.980;2023-08-20T05:56:47;5.38;;;4.93;;
10383;SDS011;5238;43.508;4.980;2023-08-20T05:59:14;6.00;;;5.13;;
10383;SDS011;5238;43.508;4.980;2023-08-20T06:01:41;5.80;;;4.88;;
10383;SDS011;5238;43.508;4.980;2023-08-20T06:04:10;4.63;;;4.20;;
10383;SDS011;5238;43.508;4.980;2023-08-20T06:06:37;5.82;;;4.75;;
10383;SDS011;5238;43.508;4.980;2023-08-20T06:09:04;5.55;;;4.47;;
10383;SDS011;5238;43.508;4.980;2023-08-20T06:11:31;7.63;;;4.50;;
10383;SDS011;5238;43.508;4.980;2023-08-20T06:13:58;5.07;;;4.30;;
10383;SDS011;5238;43.508;4.980;2023-08-20T06:16:25;6.70;;;4.40;;
10383;SDS011;5238;43.508;4.980;2023-08-20T06:18:52;5.40;;;4.05;;
10383;SDS011;5238;43.508;4.980;2023-08-20T06:21:20;7.68;;;4.43;;
10383;SDS011;5238;43.508;4.980;2023-08-20T06:23:47;6.38;;;4.57;;
10383;SDS011;5238;43.508;4.980;2023-08-20T06:26:14;4.97;;;4.40;;
10383;SDS011;5238;43.508;4.980;2023-08-20T06:28:41;6.55;;;4.57;;
10383;SDS011;5238;43.508;4.980;2023-08-20T06:31:08;4.75;;;4.15;;
10383;SDS011;5238;43.508;4.980;2023-08-20T06:33:35;8.38;;;4.55;;
10383;SDS011;5238;43.508;4.980;2023-08-20T06:36:02;4.88;;;4.38;;
10383;SDS011;5238;43.508;4.980;2023-08-20T06:38:31;4.95;;;4.30;;
10383;SDS011;5238;43.508;4.980;2023-08-20T06:40:58;4.15;;;3.75;;
10383;SDS011;5238;43.508;4.980;2023-08-20T06:43:24;4.53;;;4.07;;
10383;SDS011;5238;43.508;4.980;2023-08-20T06:45:51;4.90;;;4.20;;
10383;SDS011;5238;43.508;4.980;2023-08-20T06:48:18;5.97;;;3.95;;
10383;SDS011;5238;43.508;4.980;2023-08-20T06:50:47;5.35;;;4.55;;
10383;SDS011;5238;43.508;4.980;2023-08-20T06:53:14;7.18;;;3.80;;
10383;SDS011;5238;43.508;4.980;2023-08-20T06:55:42;6.45;;;4.20;;
10383;SDS011;5238;43.508;4.980;2023-08-20T06:58:09;6.45;;;3.65;;
10383;SDS011;5238;43.508;4.980;2023-08-20T07:00:36;4.13;;;3.75;;
10383;SDS011;5238;43.508;4.980;2023-08-20T07:03:03;4.18;;;3.78;;
10383;SDS011;5238;43.508;4.980;2023-08-20T07:05:30;4.57;;;4.18;;
10383;SDS011;5238;43.508;4.980;2023-08-20T07:07:57;5.75;;;3.17;;
10383;SDS011;5238;43.508;4.980;2023-08-20T07:10:24;6.13;;;3.95;;
10383;SDS011;5238;43.508;4.980;2023-08-20T07:12:52;5.60;;;3.95;;
10383;SDS011;5238;43.508;4.980;2023-08-20T07:15:19;5.10;;;3.92;;
10383;SDS011;5238;43.508;4.980;2023-08-20T07:17:47;4.60;;;3.45;;
10383;SDS011;5238;43.508;4.980;2023-08-20T07:20:14;5.82;;;3.70;;
10383;SDS011;5238;43.508;4.980;2023-08-20T07:22:41;4.85;;;3.50;;
10383;SDS011;5238;43.508;4.980;2023-08-20T07:25:08;4.18;;;3.40;;
10383;SDS011;5238;43.508;4.980;2023-08-20T07:27:35;3.83;;;3.50;;
10383;SDS011;5238;43.508;4.980;2023-08-20T07:30:03;4.85;;;3.75;;
10383;SDS011;5238;43.508;4.980;2023-08-20T07:32:32;5.57;;;3.90;;
10383;SDS011;5238;43.508;4.980;2023-08-20T07:34:59;5.82;;;3.85;;
10383;SDS011;5238;43.508;4.980;2023-08-20T07:37:25;5.05;;;3.50;;
10383;SDS011;5238;43.508;4.980;2023-08-20T07:39:52;3.88;;;3.35;;
10383;SDS011;5238;43.508;4.980;2023-08-20T07:42:19;5.13;;;3.47;;
10383;SDS011;5238;43.508;4.980;2023-08-20T07:44:46;4.10;;;3.30;;
10383;SDS011;5238;43.508;4.980;2023-08-20T07:47:15;4.45;;;3.40;;
10383;SDS011;5238;43.508;4.980;2023-08-20T07:49:41;3.40;;;3.10;;
10383;SDS011;5238;43.508;4.980;2023-08-20T07:52:08;3.75;;;3.38;;
10383;SDS011;5238;43.508;4.980;2023-08-20T07:54:35;4.75;;;3.42;;
10383;SDS011;5238;43.508;4.980;2023-08-20T07:57:02;4.97;;;3.30;;
10383;SDS011;5238;43.508;4.980;2023-08-20T07:59:29;3.97;;;2.90;;
10383;SDS011;5238;43.508;4.980;2023-08-20T08:01:56;3.60;;;3.15;;
10383;SDS011;5238;43.508;4.980;2023-08-20T08:04:24;5.88;;;3.40;;
10383;SDS011;5238;43.508;4.980;2023-08-20T08:06:51;3.35;;;3.05;;
10383;SDS011;5238;43.508;4.980;2023-08-20T08:09:19;4.18;;;3.35;;
10383;SDS011;5238;43.508;4.980;2023-08-20T08:11:48;4.13;;;3.33;;
10383;SDS011;5238;43.508;4.980;2023-08-20T08:14:15;6.18;;;3.00;;
10383;SDS011;5238;43.508;4.980;2023-08-20T08:16:42;5.07;;;3.60;;
10383;SDS011;5238;43.508;4.980;2023-08-20T08:19:09;3.67;;;3.30;;
10383;SDS011;5238;43.508;4.980;2023-08-20T08:21:37;4.35;;;2.92;;
10383;SDS011;5238;43.508;4.980;2023-08-20T08:24:05;5.20;;;3.15;;
10383;SDS011;5238;43.508;4.980;2023-08-20T08:26:33;3.63;;;2.95;;
10383;SDS011;5238;43.508;4.980;2023-08-20T08:29:01;4.28;;;3.30;;
10383;SDS011;5238;43.508;4.980;2023-08-20T08:31:28;5.78;;;3.20;;
10383;SDS011;5238;43.508;4.980;2023-08-20T08:33:55;3.80;;;3.40;;
10383;SDS011;5238;43.508;4.980;2023-08-20T08:36:22;3.72;;;3.08;;
10383;SDS011;5238;43.508;4.980;2023-08-20T08:38:52;3.70;;;3.08;;
10383;SDS011;5238;43.508;4.980;2023-08-20T08:41:21;3.92;;;3.15;;
10383;SDS011;5238;43.508;4.980;2023-08-20T08:43:49;9.13;;;3.83;;
10383;SDS011;5238;43.508;4.980;2023-08-20T08:46:16;3.60;;;3.00;;
10383;SDS011;5238;43.508;4.980;2023-08-20T08:48:45;3.78;;;3.17;;
10383;SDS011;5238;43.508;4.980;2023-08-20T08:51:12;4.10;;;2.90;;
10383;SDS011;5238;43.508;4.980;2023-08-20T08:53:39;8.07;;;4.13;;
10383;SDS011;5238;43.508;4.980;2023-08-20T08:56:10;16.65;;;4.07;;
10383;SDS011;5238;43.508;4.980;2023-08-20T08:58:37;3.78;;;3.30;;
10383;SDS011;5238;43.508;4.980;2023-08-20T09:01:04;4.07;;;3.08;;
10383;SDS011;5238;43.508;4.980;2023-08-20T09:03:31;14.90;;;4.70;;
10383;SDS011;5238;43.508;4.980;2023-08-20T09:05:58;5.75;;;3.20;;
10383;SDS011;5238;43.508;4.980;2023-08-20T09:08:28;3.25;;;3.00;;
10383;SDS011;5238;43.508;4.980;2023-08-20T09:10:57;3.83;;;3.38;;
10383;SDS011;5238;43.508;4.980;2023-08-20T09:13:34;8.90;;;4.50;;
10383;SDS011;5238;43.508;4.980;2023-08-20T09:16:03;5.20;;;3.00;;
10383;SDS011;5238;43.508;4.980;2023-08-20T09:18:31;4.30;;;3.38;;
10383;SDS011;5238;43.508;4.980;2023-08-20T09:20:58;5.32;;;3.50;;
10383;SDS011;5238;43.508;4.980;2023-08-20T09:23:28;5.18;;;3.40;;
10383;SDS011;5238;43.508;4.980;2023-08-20T09:25:56;4.40;;;3.70;;
10383;SDS011;5238;43.508;4.980;2023-08-20T09:28:23;4.35;;;3.85;;
10383;SDS011;5238;43.508;4.980;2023-08-20T09:30:58;8.18;;;4.32;;
10383;SDS011;5238;43.508;4.980;2023-08-20T09:33:26;6.72;;;4.43;;
10383;SDS011;5238;43.508;4.980;2023-08-20T09:35:53;5.95;;;4.40;;
10383;SDS011;5238;43.508;4.980;2023-08-20T09:38:20;6.00;;;4.15;;
10383;SDS011;5238;43.508;4.980;2023-08-20T09:40:49;5.93;;;4.70;;
10383;SDS011;5238;43.508;4.980;2023-08-20T09:43:17;8.15;;;4.47;;
10383;SDS011;5238;43.508;4.980;2023-08-20T09:45:46;4.65;;;4.25;;
10383;SDS011;5238;43.508;4.980;2023-08-20T09:48:15;5.93;;;4.30;;
10383;SDS011;5238;43.508;4.980;2023-08-20T09:50:46;5.60;;;4.50;;
10383;SDS011;5238;43.508;4.980;2023-08-20T09:53:17;7.40;;;4.57;;
10383;SDS011;5238;43.508;4.980;2023-08-20T09:55:49;6.00;;;3.67;;
10383;SDS011;5238;43.508;4.980;2023-08-20T09:58:18;5.18;;;3.92;;
10383;SDS011;5238;43.508;4.980;2023-08-20T10:00:50;5.28;;;4.03;;
10383;SDS011;5238;43.508;4.980;2023-08-20T10:03:19;4.22;;;3.72;;
10383;SDS011;5238;43.508;4.980;2023-08-20T10:05:48;7.05;;;4.55;;
10383;SDS011;5238;43.508;4.980;2023-08-20T10:08:16;5.20;;;4.40;;
10383;SDS011;5238;43.508;4.980;2023-08-20T10:10:43;6.65;;;4.43;;
10383;SDS011;5238;43.508;4.980;2023-08-20T10:13:12;9.85;;;4.70;;
10383;SDS011;5238;43.508;4.980;2023-08-20T10:15:40;6.10;;;3.92;;
10383;SDS011;5238;43.508;4.980;2023-08-20T10:18:07;6.93;;;4.72;;
10383;SDS011;5238;43.508;4.980;2023-08-20T10:20:37;7.15;;;4.10;;
10383;SDS011;5238;43.508;4.980;2023-08-20T10:23:05;6.63;;;3.92;;
10383;SDS011;5238;43.508;4.980;2023-08-20T10:25:39;7.18;;;4.82;;
10383;SDS011;5238;43.508;4.980;2023-08-20T10:28:12;5.07;;;4.05;;
10383;SDS011;5238;43.508;4.980;2023-08-20T10:31:03;4.35;;;3.97;;
10383;SDS011;5238;43.508;4.980;2023-08-20T10:33:32;8.05;;;4.10;;
10383;SDS011;5238;43.508;4.980;2023-08-20T10:36:07;6.25;;;3.95;;
10383;SDS011;5238;43.508;4.980;2023-08-20T10:38:40;5.30;;;4.03;;
10383;SDS011;5238;43.508;4.980;2023-08-20T10:41:08;7.80;;;4.00;;
10383;SDS011;5238;43.508;4.980;2023-08-20T10:43:36;7.50;;;4.47;;
10383;SDS011;5238;43.508;4.980;2023-08-20T10:46:07;5.78;;;4.03;;
10383;SDS011;5238;43.508;4.980;2023-08-20T10:48:40;5.90;;;3.83;;
10383;SDS011;5238;43.508;4.980;2023-08-20T10:51:13;5.88;;;4.00;;
10383;SDS011;5238;43.508;4.980;2023-08-20T10:53:42;7.10;;;4.10;;
10383;SDS011;5238;43.508;4.980;2023-08-20T10:56:10;12.07;;;4.63;;
10383;SDS011;5238;43.508;4.980;2023-08-20T10:58:43;9.38;;;4.38;;
10383;SDS011;5238;43.508;4.980;2023-08-20T11:01:12;6.38;;;4.20;;
10383;SDS011;5238;43.508;4.980;2023-08-20T11:03:40;10.48;;;4.20;;
10383;SDS011;5238;43.508;4.980;2023-08-20T11:06:07;5.47;;;4.35;;
10383;SDS011;5238;43.508;4.980;2023-08-20T11:08:36;7.38;;;3.92;;
10383;SDS011;5238;43.508;4.980;2023-08-20T11:11:03;6.55;;;4.00;;
10383;SDS011;5238;43.508;4.980;2023-08-20T11:13:31;7.45;;;5.65;;
10383;SDS011;5238;43.508;4.980;2023-08-20T11:15:59;5.32;;;3.83;;
10383;SDS011;5238;43.508;4.980;2023-08-20T11:18:26;7.43;;;4.65;;
10383;SDS011;5238;43.508;4.980;2023-08-20T11:20:53;6.32;;;3.90;;
10383;SDS011;5238;43.508;4.980;2023-08-20T11:23:20;8.82;;;4.57;;
10383;SDS011;5238;43.508;4.980;2023-08-20T11:25:50;5.20;;;4.22;;
10383;SDS011;5238;43.508;4.980;2023-08-20T11:28:17;5.90;;;4.10;;
10383;SDS011;5238;43.508;4.980;2023-08-20T11:30:45;7.20;;;4.43;;
10383;SDS011;5238;43.508;4.980;2023-08-20T11:33:13;6.72;;;4.85;;
10383;SDS011;5238;43.508;4.980;2023-08-20T11:35:40;5.05;;;4.65;;
10383;SDS011;5238;43.508;4.980;2023-08-20T11:38:09;7.22;;;4.85;;
10383;SDS011;5238;43.508;4.980;2023-08-20T11:40:36;6.97;;;4.57;;
10383;SDS011;5238;43.508;4.980;2023-08-20T11:43:05;8.65;;;5.38;;
10383;SDS011;5238;43.508;4.980;2023-08-20T11:45:32;7.25;;;4.50;;
10383;SDS011;5238;43.508;4.980;2023-08-20T11:48:09;5.32;;;4.78;;
10383;SDS011;5238;43.508;4.980;2023-08-20T11:50:36;5.68;;;4.78;;
10383;SDS011;5238;43.508;4.980;2023-08-20T11:53:03;6.68;;;5.10;;
10383;SDS011;5238;43.508;4.980;2023-08-20T11:55:30;6.68;;;4.80;;
10383;SDS011;5238;43.508;4.980;2023-08-20T11:57:57;9.20;;;5.03;;
10383;SDS011;5238;43.508;4.980;2023-08-20T12:00:27;5.97;;;5.03;;
10383;SDS011;5238;43.508;4.980;2023-08-20T12:02:58;6.00;;;5.45;;
10383;SDS011;5238;43.508;4.980;2023-08-20T12:05:28;7.03;;;4.85;;
10383;SDS011;5238;43.508;4.980;2023-08-20T12:07:55;7.15;;;5.13;;
10383;SDS011;5238;43.508;4.980;2023-08-20T12:10:24;5.47;;;4.93;;
10383;SDS011;5238;43.508;4.980;2023-08-20T12:12:52;5.13;;;4.60;;
10383;SDS011;5238;43.508;4.980;2023-08-20T12:15:20;6.50;;;5.18;;
10383;SDS011;5238;43.508;4.980;2023-08-20T12:18:01;6.80;;;4.90;;
10383;SDS011;5238;43.508;4.980;2023-08-20T12:20:30;6.43;;;4.90;;
10383;SDS011;5238;43.508;4.980;2023-08-20T12:22:58;5.90;;;5.18;;
10383;SDS011;5238;43.508;4.980;2023-08-20T12:25:26;6.03;;;5.00;;
10383;SDS011;5238;43.508;4.980;2023-08-20T12:27:55;6.18;;;4.88;;
10383;SDS011;5238;43.508;4.980;2023-08-20T12:30:24;7.35;;;4.47;;
10383;SDS011;5238;43.508;4.980;2023-08-20T12:32:51;6.93;;;4.60;;
10383;SDS011;5238;43.508;4.980;2023-08-20T12:35:19;5.65;;;5.05;;
10383;SDS011;5238;43.508;4.980;2023-08-20T12:37:46;5.93;;;5.25;;
10383;SDS011;5238;43.508;4.980;2023-08-20T12:40:13;7.55;;;4.80;;
10383;SDS011;5238;43.508;4.980;2023-08-20T12:42:40;5.53;;;4.70;;
10383;SDS011;5238;43.508;4.980;2023-08-20T12:45:09;5.53;;;4.68;;
10383;SDS011;5238;43.508;4.980;2023-08-20T12:47:38;8.15;;;5.00;;
10383;SDS011;5238;43.508;4.980;2023-08-20T12:50:05;7.03;;;4.63;;
10383;SDS011;5238;43.508;4.980;2023-08-20T12:52:34;6.50;;;5.40;;
10383;SDS011;5238;43.508;4.980;2023-08-20T12:55:01;5.35;;;4.32;;
10383;SDS011;5238;43.508;4.980;2023-08-20T12:57:29;10.27;;;5.18;;
10383;SDS011;5238;43.508;4.980;2023-08-20T12:59:56;5.35;;;4.45;;
10383;SDS011;5238;43.508;4.980;2023-08-20T13:02:24;10.10;;;4.50;;
10383;SDS011;5238;43.508;4.980;2023-08-20T13:04:52;5.90;;;4.35;;
10383;SDS011;5238;43.508;4.980;2023-08-20T13:07:19;13.60;;;4.97;;
10383;SDS011;5238;43.508;4.980;2023-08-20T13:09:48;4.40;;;4.10;;
10383;SDS011;5238;43.508;4.980;2023-08-20T13:12:15;10.90;;;4.93;;
10383;SDS011;5238;43.508;4.980;2023-08-20T13:14:45;4.95;;;4.45;;
10383;SDS011;5238;43.508;4.980;2023-08-20T13:17:12;13.63;;;5.45;;
10383;SDS011;5238;43.508;4.980;2023-08-20T13:19:39;9.10;;;4.75;;
10383;SDS011;5238;43.508;4.980;2023-08-20T13:22:06;6.65;;;4.90;;
10383;SDS011;5238;43.508;4.980;2023-08-20T13:24:33;5.78;;;4.05;;
10383;SDS011;5238;43.508;4.980;2023-08-20T13:27:02;8.95;;;4.35;;
10383;SDS011;5238;43.508;4.980;2023-08-20T13:29:29;5.18;;;4.38;;
10383;SDS011;5238;43.508;4.980;2023-08-20T13:31:56;6.38;;;4.65;;
10383;SDS011;5238;43.508;4.980;2023-08-20T13:34:22;4.57;;;4.10;;
10383;SDS011;5238;43.508;4.980;2023-08-20T13:36:49;12.45;;;4.70;;
10383;SDS011;5238;43.508;4.980;2023-08-20T13:39:16;7.32;;;3.83;;
10383;SDS011;5238;43.508;4.980;2023-08-20T13:41:44;8.63;;;4.75;;
10383;SDS011;5238;43.508;4.980;2023-08-20T13:44:13;8.02;;;4.00;;
10383;SDS011;5238;43.508;4.980;2023-08-20T13:46:40;7.63;;;3.90;;
10383;SDS011;5238;43.508;4.980;2023-08-20T13:49:07;5.03;;;4.20;;
10383;SDS011;5238;43.508;4.980;2023-08-20T13:51:34;11.68;;;4.40;;
10383;SDS011;5238;43.508;4.980;2023-08-20T13:54:01;6.82;;;3.83;;
10383;SDS011;5238;43.508;4.980;2023-08-20T13:56:29;5.30;;;4.05;;
10383;SDS011;5238;43.508;4.980;2023-08-20T13:58:56;6.30;;;3.75;;
10383;SDS011;5238;43.508;4.980;2023-08-20T14:01:24;8.38;;;4.10;;
10383;SDS011;5238;43.508;4.980;2023-08-20T14:03:51;6.68;;;4.03;;
10383;SDS011;5238;43.508;4.980;2023-08-20T14:06:19;5.90;;;4.30;;
10383;SDS011;5238;43.508;4.980;2023-08-20T14:08:46;6.93;;;3.67;;
10383;SDS011;5238;43.508;4.980;2023-08-20T14:11:13;4.07;;;3.60;;
10383;SDS011;5238;43.508;4.980;2023-08-20T14:13:40;4.93;;;3.80;;
10383;SDS011;5238;43.508;4.980;2023-08-20T14:16:08;9.52;;;4.07;;
10383;SDS011;5238;43.508;4.980;2023-08-20T14:18:36;5.18;;;4.15;;
10383;SDS011;5238;43.508;4.980;2023-08-20T14:21:03;6.45;;;3.63;;
10383;SDS011;5238;43.508;4.980;2023-08-20T14:23:30;4.45;;;3.90;;
10383;SDS011;5238;43.508;4.980;2023-08-20T14:25:57;6.95;;;4.10;;
10383;SDS011;5238;43.508;4.980;2023-08-20T14:28:24;5.93;;;3.75;;
10383;SDS011;5238;43.508;4.980;2023-08-20T14:30:51;5.47;;;3.58;;
10383;SDS011;5238;43.508;4.980;2023-08-20T14:33:19;5.03;;;3.38;;
10383;SDS011;5238;43.508;4.980;2023-08-20T14:35:48;5.45;;;3.78;;
10383;SDS011;5238;43.508;4.980;2023-08-20T14:38:15;5.30;;;3.67;;
10383;SDS011;5238;43.508;4.980;2023-08-20T14:40:42;5.80;;;3.22;;
10383;SDS011;5238;43.508;4.980;2023-08-20T14:43:09;4.57;;;3.50;;
10383;SDS011;5238;43.508;4.980;2023-08-20T14:45:36;6.20;;;3.60;;
10383;SDS011;5238;43.508;4.980;2023-08-20T14:48:04;5.35;;;3.22;;
10383;SDS011;5238;43.508;4.980;2023-08-20T14:50:31;7.10;;;3.97;;
10383;SDS011;5238;43.508;4.980;2023-08-20T14:53:00;7.07;;;3.95;;
10383;SDS011;5238;43.508;4.980;2023-08-20T14:55:27;6.32;;;3.35;;
10383;SDS011;5238;43.508;4.980;2023-08-20T14:57:54;5.60;;;3.80;;
10383;SDS011;5238;43.508;4.980;2023-08-20T15:00:21;4.82;;;3.40;;
10383;SDS011;5238;43.508;4.980;2023-08-20T15:02:49;5.70;;;3.28;;
10383;SDS011;5238;43.508;4.980;2023-08-20T15:05:16;5.53;;;3.50;;